• Join FlightAware (Why Join?)
  • Login
  • US Flag GB Flag 
10:11 EST


 

Airport Tracker/Info


-or-


 

Live Flight TrackerFlight Track Log ✈ UAL619 ✈ 20-Apr-2013 ✈ KSJC - KDEN

Flight Track Log - Related Links

Times and Time Zones

All times are in EDT time to prevent confusion due to time zone crossing. See the UAL619 flight status page for this flight to view local times or setup timezone preferences in your user account.

Time Position Orientation Groundspeed Altitude Reporting Facility
EDT Latitude Longitude Course Direction KTS MPH feet Rate Location/Type
11:00 37.3833 -121.9500 63° Northeast 165 190 1,600  Level Northern Cal TRACON
11:01 37.4333 -121.9833 332° Northwest 211 243 4,300 1,789 Climbing Northern Cal TRACON
11:02 37.6880 -121.9735 354° North  Level FlightAware Approximate
11:02 37.4500 -121.9000 76° East 280 322 5,000  Level Northern Cal TRACON
11:03 37.8009 -121.9788 76° East  Level FlightAware Approximate
11:03 37.3833 -121.8333 142° Southeast 285 328 6,900  Level Northern Cal TRACON
11:04 37.8294 -121.8363 76° East  Level FlightAware Approximate
11:04 37.3167 -121.8000 158° South 311 358 10,000  Level Northern Cal TRACON
11:05 37.8672 -121.6986 63° Northeast  Level FlightAware Approximate
11:05 37.3000 -121.8667 253° West 312 359 12,400  Level Northern Cal TRACON
11:05 37.3100 -121.9011 290° West 301 346 12,900 2,214 Climbing Oakland Center
11:06 37.3950 -121.9500 335° Northwest 331 381 15,500 2,459 Climbing Oakland Center
11:07 37.4919 -121.9408 North 348 400 17,900 2,361 Climbing Oakland Center
11:08 37.5658 -121.8436 46° Northeast 390 449 20,300 2,262 Climbing Oakland Center
11:09 37.6336 -121.7314 53° Northeast 403 464 22,500 2,033 Climbing Oakland Center
11:10 37.7056 -121.6131 52° Northeast 422 486 24,400 1,884 Climbing Oakland Center
11:11 37.7797 -121.4911 52° Northeast 437 503 26,300 1,918 Climbing Oakland Center
11:12 37.8667 -121.3508 52° Northeast 446 513 28,300 1,672 Climbing Oakland Center
11:13 37.9436 -121.2217 53° Northeast 457 526 29,700 1,525 Climbing Oakland Center
11:14 38.0219 -121.0906 53° Northeast 466 536 31,400 1,672 Climbing Oakland Center
11:15 38.0822 -120.9450 62° Northeast 476 548 33,100 1,623 Climbing Oakland Center
11:16 38.1058 -120.7767 80° East 487 560 34,700 1,082 Climbing Oakland Center
11:17 38.1275 -120.6081 81° East 487 560 35,300 590 Climbing Oakland Center
11:18 38.1511 -120.4389 80° East 488 562 35,900 787 Climbing Oakland Center
11:19 38.1731 -120.2697 81° East 487 560 36,900 1,131 Climbing Oakland Center
11:20 38.1950 -120.1017 81° East 485 558 38,200 1,033 Climbing Oakland Center
11:21 38.2175 -119.9364 80° East 479 551 39,000 393 Climbing Oakland Center
11:22 38.2375 -119.7686 81° East 479 551 39,000  Level Oakland Center
11:23 38.2633 -119.5664 81° East 483 556 39,000  Level Oakland Center
11:24 38.2817 -119.4222 81° East 483 556 39,000  Level Oakland Center
11:25 38.3008 -119.2539 82° East 483 556 39,000  Level Oakland Center
11:26 38.3267 -119.0525 81° East 483 556 39,000  Level Oakland Center
11:27 38.3458 -118.8842 82° East 483 556 39,000  Level Oakland Center
11:28 38.3653 -118.7169 82° East 481 554 39,000  Level Oakland Center
11:30 38.3847 -118.5483 82° East 482 555 39,000  Level Oakland Center
11:31 38.4042 -118.3794 82° East 483 556 39,000  Level Oakland Center
11:32 38.4225 -118.2094 82° East 486 559 39,000  Level Oakland Center
11:33 38.4308 -118.0419 86° East 492 566 39,000  Level Oakland Center
11:34 38.4253 -117.8636 92° East 502 578 39,000  Level Oakland Center
11:35 38.4203 -117.6869 92° East 499 574 39,000  Level Oakland Center
11:35 38.4164 -117.5783 93° East 500 575 39,000  Level Salt Lake Center
11:36 38.4131 -117.5075 93° East 503 579 39,000  Level Oakland Center
11:37 38.4056 -117.3261 93° East 506 582 39,000  Level Oakland Center
11:37 38.4011 -117.2164 93° East 505 581 39,000  Level Salt Lake Center
11:38 38.3922 -117.0361 94° East 501 577 39,000  Level Salt Lake Center
11:39 38.3903 -116.9644 92° East 501 577 39,000  Level Oakland Center
11:40 38.3825 -116.7842 93° East 504 580 39,000  Level Oakland Center
11:41 38.3719 -116.5711 94° East 501 577 39,000  Level Oakland Center
11:42 38.3633 -116.3914 93° East 505 581 39,000  Level Oakland Center
11:42 38.3586 -116.3200 95° East 504 580 39,000  Level Salt Lake Center
11:43 38.3503 -116.1428 93° East 502 578 39,000  Level Salt Lake Center
11:44 38.3389 -115.9275 94° East 507 583 39,000  Level Salt Lake Center
11:45 38.3275 -115.7469 95° East 509 586 39,000  Level Salt Lake Center
11:46 38.3192 -115.5664 93° East 510 587 39,000  Level Salt Lake Center
11:47 38.3078 -115.3853 95° East 512 589 39,000  Level Salt Lake Center
11:48 38.3017 -115.2178 93° East 514 592 39,000  Level Salt Lake Center
11:49 38.2878 -115.0006 95° East 515 593 39,000  Level Salt Lake Center
11:50 38.2772 -114.8206 94° East 512 589 39,000  Level Salt Lake Center
11:52 38.2653 -114.6386 95° East 515 593 39,000  Level Salt Lake Center
11:53 38.2536 -114.4592 95° East 512 589 39,000  Level Salt Lake Center
11:54 38.2564 -114.2794 89° East 509 586 39,000  Level Salt Lake Center
11:55 38.2681 -114.1006 85° East 506 582 39,000  Level Salt Lake Center
11:56 38.2781 -113.9219 86° East 507 583 39,000  Level Salt Lake Center
11:57 38.2894 -113.7461 85° East 502 578 39,000  Level Salt Lake Center
11:58 38.3006 -113.5328 86° East 503 579 39,000  Level Salt Lake Center
11:59 38.3092 -113.3567 86° East 499 574 39,000  Level Salt Lake Center
12:00 38.3183 -113.1811 86° East 497 572 39,000  Level Salt Lake Center
12:01 38.3275 -113.0069 86° East 493 567 39,000  Level Salt Lake Center
12:02 38.3347 -112.8319 87° East 493 567 39,000  Level Salt Lake Center
12:03 38.3433 -112.6578 86° East 492 566 39,000  Level Salt Lake Center
12:04 38.3519 -112.4819 86° East 495 570 39,000  Level Salt Lake Center
12:05 38.3603 -112.3078 86° East 493 567 39,000  Level Salt Lake Center
12:06 38.3681 -112.1308 87° East 498 573 39,000  Level Salt Lake Center
12:07 38.3747 -111.9547 87° East 497 572 39,000  Level Salt Lake Center
12:08 38.3842 -111.7433 87° East 497 572 39,000  Level Salt Lake Center
12:09 38.3903 -111.5667 87° East 499 574 39,000  Level Salt Lake Center
12:10 38.3972 -111.3911 87° East 497 572 39,000  Level Salt Lake Center
12:11 38.4025 -111.2133 88° East 501 577 39,000  Level Salt Lake Center
12:12 38.4083 -111.0356 88° East 503 579 39,000  Level Salt Lake Center
12:13 38.4131 -110.8475 88° East 503 579 39,000  Level Salt Lake Center
12:14 38.4189 -110.6772 87° East 504 580 39,000  Level Salt Lake Center
12:15 38.4194 -110.5611 90° East 506 582 39,000  Level Denver Center
12:16 38.4244 -110.3603 88° East 508 585 39,000  Level Denver Center
12:16 38.4264 -110.3056 87° East 507 583 39,000  Level Salt Lake Center
12:17 38.4306 -110.1050 88° East 508 585 39,000  Level Salt Lake Center
12:18 38.4319 -109.9889 89° East 509 586 39,000  Level Denver Center
12:19 38.4344 -109.8156 89° East 510 587 39,000  Level Denver Center
12:20 38.4383 -109.6156 89° East 510 587 39,000  Level Denver Center
12:21 38.4400 -109.4456 89° East 505 581 39,000  Level Denver Center
12:22 38.4417 -109.2744 89° East 505 581 39,000  Level Denver Center
12:23 38.4444 -109.0761 89° East 503 579 39,000  Level Denver Center
12:24 38.4464 -108.9067 89° East 502 578 39,000  Level Denver Center
12:25 38.4489 -108.7108 89° East 498 573 39,000  Level Denver Center
12:26 38.4494 -108.5408 90° East 502 578 39,000  Level Denver Center
12:27 38.4506 -108.3425 90° East 502 578 39,000  Level Denver Center
12:28 38.4517 -108.1747 89° East 498 573 39,000  Level Denver Center
12:29 38.4517 -107.9750 90° East 503 579 39,000 -290 Level Denver Center
12:30 38.4519 -107.8072 90° East 499 574 38,400 -726 Descending Denver Center
12:31 38.4550 -107.6150 89° East 486 559 37,500 -871 Descending Denver Center
12:32 38.5081 -107.4694 65° Northeast 475 547 36,600 -871 Descending Denver Center
12:33 38.5789 -107.3106 60° Northeast 465 535 35,700 -774 Descending Denver Center
12:34 38.6439 -107.1656 60° Northeast 461 531 35,000 -339 Descending Denver Center
12:35 38.7067 -107.0233 60° Northeast 460 529 35,000  Level Denver Center
12:36 38.7703 -106.8822 60° Northeast 459 528 35,000  Level Denver Center
12:37 38.8322 -106.7383 61° Northeast 461 531 35,000 -629 Level Denver Center
12:38 38.9011 -106.5833 60° Northeast 462 532 33,700 -1,113 Descending Denver Center
12:39 38.9761 -106.4242 59° Northeast 466 536 32,700 -1,403 Descending Denver Center
12:40 39.0381 -106.2897 59° Northeast 460 529 30,800 -2,032 Descending Denver Center
12:42 39.1025 -106.1436 60° Northeast 438 504 28,500 -2,081 Descending Denver Center
12:43 39.1606 -106.0131 60° Northeast 419 482 26,500 -1,935 Descending Denver Center
12:44 39.2158 -105.8869 60° Northeast 404 465 24,500 -1,935 Descending Denver Center
12:45 39.2700 -105.7656 60° Northeast 390 449 22,500 -1,694 Descending Denver Center
12:46 39.3231 -105.6458 60° Northeast 382 440 21,000 -1,597 Descending Denver Center
12:47 39.3728 -105.5311 61° Northeast 367 422 19,200 -1,500 Descending Denver Center
12:48 39.4006 -105.4011 75° East 344 396 17,900 -1,403 Descending Denver Center
12:49 39.4044 -105.2756 88° East 330 380 16,300 -1,500 Descending Denver Center
12:50 39.4044 -105.1642 90° East 317 365 14,800 -1,306 Descending Denver Center
12:51 39.3919 -105.0478 98° East 307 353 13,600 -871 Descending Denver Center
12:52 39.3819 -104.9506 98° East 277 319 13,000 -484 Descending Denver Center
12:53 39.4000 -104.8583 76° East 256 295 12,600 -435 Descending Denver Center
12:54 39.4381 -104.7853 56° Northeast 247 284 12,100 -484 Descending Denver Center
12:55 39.4928 -104.7233 41° Northeast 245 282 11,600 -581 Descending Denver Center
12:56 39.5531 -104.6819 28° Northeast 247 284 10,900 -968 Descending Denver Center
12:57 39.6197 -104.6656 11° North 230 265 9,600 -1,210 Descending Denver Center
12:58 39.6822 -104.6622 North 225 259 8,400 -1,161 Descending Denver Center